Time;durP1;ratioP1;P1;durP2;ratioP2;P2;SDS_P1;SDS_P2;PMS_P1;PMS_P2;Temp;Humidity;BMP_temperature;BMP_pressure;BME280_temperature;BME280_humidity;BME280_pressure;Samples;Min_cycle;Max_cycle;Signal;HPM_P1;HPM_P2
2021/10/15 00:00:06;;;;;;;5.28;4.55;;;;;;;12.19;51.58;95841.59;4953941;28;20105;-71
2021/10/15 00:02:32;;;;;;;5.70;5.20;;;;;;;12.14;51.16;95837.16;4953301;28;20594;-72
2021/10/15 00:04:57;;;;;;;5.38;4.80;;;;;;;12.08;51.95;95833.00;4951390;28;20060;-71
2021/10/15 00:07:22;;;;;;;5.78;5.00;;;;;;;11.99;51.59;95820.66;4965521;28;20496;-71
2021/10/15 00:09:48;;;;;;;5.20;4.70;;;;;;;12.07;51.78;95833.28;4970225;28;20473;-71
2021/10/15 00:12:14;;;;;;;6.35;4.97;;;;;;;12.05;51.56;95822.13;4969126;28;20046;-71
2021/10/15 00:14:39;;;;;;;6.20;5.00;;;;;;;12.03;51.17;95835.78;4957560;28;20052;-71
2021/10/15 00:17:05;;;;;;;4.60;4.20;;;;;;;11.97;51.47;95827.06;4951980;28;20473;-71
2021/10/15 00:19:30;;;;;;;5.97;5.38;;;;;;;11.89;51.65;95832.31;4965740;28;20104;-71
2021/10/15 00:21:55;;;;;;;4.55;3.95;;;;;;;11.78;51.97;95814.88;4970367;28;20068;-72
2021/10/15 00:24:21;;;;;;;4.95;4.40;;;;;;;11.78;51.69;95822.88;4970071;28;20125;-71
2021/10/15 00:26:46;;;;;;;4.13;3.70;;;;;;;11.85;51.44;95826.75;4968404;28;20023;-71
2021/10/15 00:29:12;;;;;;;4.30;3.90;;;;;;;11.86;51.08;95815.00;4960830;28;20051;-71
2021/10/15 00:31:37;;;;;;;8.05;4.03;;;;;;;11.88;51.09;95823.50;4957845;28;20043;-71
2021/10/15 00:34:02;;;;;;;4.70;4.30;;;;;;;11.89;50.91;95814.44;4949495;28;20101;-70
2021/10/15 00:36:28;;;;;;;6.75;4.60;;;;;;;11.78;51.29;95802.34;4951082;28;20039;-71
2021/10/15 00:38:53;;;;;;;4.50;4.10;;;;;;;11.82;51.84;95810.56;4965223;28;20071;-71
2021/10/15 00:41:19;;;;;;;4.63;3.58;;;;;;;11.80;51.47;95812.72;4952474;29;20030;-71
2021/10/15 00:44:02;;;;;;;4.57;4.20;;;;;;;11.75;51.86;95807.47;4957565;28;20043;-71
2021/10/15 00:46:28;;;;;;;4.43;4.03;;;;;;;11.77;52.08;95791.97;4950426;28;20051;-71
2021/10/15 00:48:54;;;;;;;4.32;3.92;;;;;;;11.74;52.02;95780.03;4950162;28;20136;-71
2021/10/15 00:51:20;;;;;;;6.32;3.65;;;;;;;11.81;51.88;95788.41;4950303;28;20047;-71
2021/10/15 00:53:46;;;;;;;4.65;3.88;;;;;;;11.74;51.38;95790.69;4964633;28;20031;-71
2021/10/15 00:56:12;;;;;;;3.42;3.10;;;;;;;11.65;51.41;95782.59;4952257;29;20106;-71
2021/10/15 00:58:37;;;;;;;3.95;3.30;;;;;;;11.68;51.61;95773.22;4957321;28;20054;-71
2021/10/15 01:01:03;;;;;;;4.25;3.88;;;;;;;11.45;51.36;95743.78;4950106;28;20031;-74
2021/10/15 01:03:28;;;;;;;3.70;3.40;;;;;;;11.70;51.66;95769.16;4949800;28;20565;-71
2021/10/15 01:05:55;;;;;;;3.58;3.28;;;;;;;11.70;51.61;95773.69;4950209;28;20027;-71
2021/10/15 01:08:20;;;;;;;4.07;3.17;;;;;;;11.75;51.99;95781.59;4951907;28;20031;-70
2021/10/15 01:10:46;;;;;;;3.83;3.53;;;;;;;11.76;51.54;95767.19;4932504;28;20469;-71
2021/10/15 01:13:11;;;;;;;3.67;3.30;;;;;;;11.72;51.44;95771.56;4950208;28;20086;-71
2021/10/15 01:15:37;;;;;;;4.07;3.47;;;;;;;11.71;52.03;95765.41;4949625;28;20790;-71
2021/10/15 01:18:09;;;;;;;3.10;2.80;;;;;;;11.69;51.97;95761.47;4949758;28;20034;-71
2021/10/15 01:20:35;;;;;;;3.08;2.88;;;;;;;11.62;51.79;95753.88;4951230;29;20031;-71
2021/10/15 01:23:00;;;;;;;3.25;2.95;;;;;;;11.61;51.87;95748.81;4949653;28;20046;-71
2021/10/15 01:25:32;;;;;;;4.05;3.50;;;;;;;11.60;51.75;95747.25;4964780;28;20054;-71
2021/10/15 01:27:57;;;;;;;3.38;2.88;;;;;;;11.58;51.42;95744.09;4955072;28;20062;-71
2021/10/15 01:30:22;;;;;;;3.40;3.00;;;;;;;11.56;51.64;95741.72;4958017;28;20074;-71
2021/10/15 01:32:48;;;;;;;3.55;2.78;;;;;;;11.53;51.67;95737.00;4949261;28;20035;-71
2021/10/15 01:35:13;;;;;;;2.95;2.75;;;;;;;11.49;51.39;95728.00;4951499;29;20027;-70
2021/10/15 01:37:38;;;;;;;4.57;3.72;;;;;;;11.49;51.46;95727.22;4948219;28;20035;-70
2021/10/15 01:40:05;;;;;;;5.18;3.88;;;;;;;11.49;51.09;95738.66;4949136;28;20040;-70
2021/10/15 01:45:13;;;;;;;2.70;2.50;;;;;;;11.50;51.67;95720.78;4951284;28;20588;-71
2021/10/15 01:47:39;;;;;;;2.63;2.42;;;;;;;11.52;51.34;95716.75;4949536;28;20035;-71
2021/10/15 01:50:05;;;;;;;2.60;2.40;;;;;;;11.60;51.38;95725.94;4951066;28;20802;-71
2021/10/15 01:52:31;;;;;;;4.53;2.50;;;;;;;11.57;51.59;95707.88;4949581;28;20039;-71
2021/10/15 01:54:56;;;;;;;2.80;2.60;;;;;;;11.57;51.72;95703.34;4951170;28;20035;-71
2021/10/15 01:57:21;;;;;;;2.60;2.40;;;;;;;11.62;51.30;95705.13;4955417;28;20047;-72
2021/10/15 01:59:47;;;;;;;5.40;2.70;;;;;;;11.64;51.26;95716.28;4964112;28;20631;-71
2021/10/15 02:02:12;;;;;;;2.30;2.10;;;;;;;11.61;50.99;95703.53;4957239;28;20023;-71
2021/10/15 02:04:37;;;;;;;2.70;2.50;;;;;;;11.63;51.30;95704.03;4952883;28;20050;-70
2021/10/15 02:07:03;;;;;;;3.05;2.65;;;;;;;11.56;50.97;95693.75;4953183;28;20073;-71
2021/10/15 02:09:28;;;;;;;3.20;2.72;;;;;;;11.57;50.67;95698.00;4952719;28;20071;-71
2021/10/15 02:11:53;;;;;;;2.53;2.33;;;;;;;11.51;50.78;95682.41;4953063;28;20023;-71
2021/10/15 02:14:19;;;;;;;2.85;2.58;;;;;;;11.52;51.09;95686.66;4976862;28;20603;-71
2021/10/15 02:16:44;;;;;;;3.13;2.20;;;;;;;11.39;51.29;95682.91;4953025;28;20086;-71
2021/10/15 02:19:10;;;;;;;2.42;1.80;;;;;;;11.23;52.23;95676.28;4967547;28;20509;-71
2021/10/15 02:21:35;;;;;;;1.90;1.80;;;;;;;11.28;51.77;95690.28;4953021;28;20569;-71
2021/10/15 02:24:00;;;;;;;2.50;2.30;;;;;;;11.25;52.10;95690.88;4967161;28;20035;-70
2021/10/15 02:26:26;;;;;;;2.25;2.05;;;;;;;11.23;51.91;95692.25;4969872;28;20038;-71
2021/10/15 02:28:51;;;;;;;2.20;2.00;;;;;;;11.23;52.35;95681.63;4952191;28;20122;-71
2021/10/15 02:31:16;;;;;;;2.28;2.08;;;;;;;11.25;52.06;95690.88;4960855;28;20091;-70
2021/10/15 02:33:42;;;;;;;3.35;2.20;;;;;;;11.22;51.94;95685.38;4952987;28;20118;-71
2021/10/15 02:36:07;;;;;;;3.85;2.38;;;;;;;11.23;51.95;95690.38;4953117;28;20114;-71
2021/10/15 02:38:32;;;;;;;2.15;1.88;;;;;;;11.12;52.02;95673.81;4954389;29;20027;-71
2021/10/15 02:40:58;;;;;;;2.42;2.22;;;;;;;11.12;51.61;95679.13;4952617;28;20044;-71
2021/10/15 02:43:23;;;;;;;2.53;2.33;;;;;;;11.10;51.81;95678.63;4969086;28;20093;-71
2021/10/15 02:45:49;;;;;;;2.30;2.10;;;;;;;11.12;52.55;95678.34;4972724;28;20074;-71
2021/10/15 02:48:14;;;;;;;2.88;2.45;;;;;;;11.04;51.97;95674.47;4952543;28;20035;-71
2021/10/15 02:50:40;;;;;;;2.60;2.40;;;;;;;11.03;51.38;95664.91;4952153;28;20085;-71
2021/10/15 02:53:05;;;;;;;2.47;2.13;;;;;;;11.06;51.69;95671.53;4954080;28;20683;-71
2021/10/15 02:55:30;;;;;;;4.43;2.38;;;;;;;11.03;51.96;95669.44;4951122;28;20043;-71
2021/10/15 02:57:56;;;;;;;2.88;2.55;;;;;;;10.95;52.19;95665.56;4952167;28;20039;-74
2021/10/15 03:00:21;;;;;;;2.22;1.95;;;;;;;10.92;51.51;95663.53;4961952;28;20042;-71
2021/10/15 03:02:47;;;;;;;3.08;1.95;;;;;;;11.04;52.42;95673.69;4957814;28;20027;-71
2021/10/15 03:05:12;;;;;;;2.72;2.53;;;;;;;10.93;51.79;95655.22;4954208;28;20021;-71
2021/10/15 03:07:38;;;;;;;2.15;2.00;;;;;;;10.97;52.08;95665.31;4951369;28;20075;-71
2021/10/15 03:10:05;;;;;;;2.20;2.00;;;;;;;10.89;51.97;95651.56;4951870;28;20074;-71
2021/10/15 03:12:31;;;;;;;2.70;2.50;;;;;;;10.91;51.61;95654.75;4951739;28;20138;-71
2021/10/15 03:14:57;;;;;;;2.83;2.00;;;;;;;10.82;51.33;95648.50;4959829;28;27081;-71
2021/10/15 03:17:22;;;;;;;4.05;2.55;;;;;;;10.86;51.82;95648.72;4976731;28;20027;-71
2021/10/15 03:19:47;;;;;;;2.92;2.13;;;;;;;10.78;51.48;95642.19;4951712;28;20039;-71
2021/10/15 03:22:13;;;;;;;4.10;2.60;;;;;;;10.80;51.38;95655.19;4950713;28;20075;-71
2021/10/15 03:24:38;;;;;;;4.88;2.50;;;;;;;10.75;51.91;95653.44;4951929;28;20027;-71
2021/10/15 03:27:03;;;;;;;2.85;2.28;;;;;;;10.77;51.61;95655.78;4950772;28;20518;-70
2021/10/15 03:29:29;;;;;;;3.03;2.33;;;;;;;10.72;51.89;95661.97;4960820;28;20019;-70
2021/10/15 03:31:54;;;;;;;2.10;1.90;;;;;;;10.77;51.54;95667.22;4951683;28;20031;-71
2021/10/15 03:34:20;;;;;;;3.75;2.85;;;;;;;10.65;51.88;95656.25;4951749;28;20047;-71
2021/10/15 03:36:45;;;;;;;3.67;2.25;;;;;;;10.67;51.47;95667.38;4951634;28;20074;-70
2021/10/15 03:39:11;;;;;;;2.45;2.25;;;;;;;10.34;52.74;95659.41;4951354;28;20126;-70
2021/10/15 03:41:38;;;;;;;3.05;2.60;;;;;;;10.40;53.02;95663.56;4953358;29;20031;-71
2021/10/15 03:44:04;;;;;;;2.40;2.17;;;;;;;10.56;52.69;95668.63;4951089;28;20047;-71
2021/10/15 03:46:30;;;;;;;3.88;2.60;;;;;;;10.63;52.33;95671.72;4951486;28;20050;-71
2021/10/15 03:48:55;;;;;;;4.72;2.58;;;;;;;10.65;52.49;95656.25;4951136;28;20130;-71
2021/10/15 03:51:21;;;;;;;2.20;2.00;;;;;;;10.63;52.09;95647.75;4951351;28;20040;-71
2021/10/15 03:53:46;;;;;;;2.88;2.55;;;;;;;10.52;51.93;95633.84;4951053;28;20035;-71
2021/10/15 03:56:11;;;;;;;4.47;2.55;;;;;;;10.54;52.50;95652.16;4953464;29;20028;-71
2021/10/15 03:58:37;;;;;;;3.13;2.90;;;;;;;10.51;51.88;95642.13;4950643;28;20051;-70
2021/10/15 04:01:02;;;;;;;5.47;2.22;;;;;;;10.55;52.02;95640.47;4958546;28;20055;-71
2021/10/15 04:03:28;;;;;;;2.95;2.20;;;;;;;10.56;52.52;95634.06;4949865;28;20043;-71
2021/10/15 04:05:53;;;;;;;3.95;3.35;;;;;;;10.44;52.05;95621.22;4951557;28;20382;-71
2021/10/15 04:08:18;;;;;;;3.83;3.05;;;;;;;10.49;52.01;95630.97;4953484;28;20527;-71
2021/10/15 04:10:44;;;;;;;3.33;3.03;;;;;;;10.40;52.03;95615.69;4950762;28;20409;-71
2021/10/15 04:13:09;;;;;;;4.88;2.50;;;;;;;10.37;51.61;95621.56;4950595;28;20047;-71
2021/10/15 04:15:34;;;;;;;2.70;2.47;;;;;;;10.31;52.68;95620.09;4960670;28;20170;-71
2021/10/15 04:18:00;;;;;;;3.53;2.90;;;;;;;10.39;52.10;95621.31;4962389;28;20043;-72
2021/10/15 04:20:25;;;;;;;3.03;2.38;;;;;;;10.32;52.10;95615.56;4952388;28;20480;-71
2021/10/15 04:22:50;;;;;;;3.22;2.67;;;;;;;10.32;52.03;95611.03;4950071;28;20054;-71
2021/10/15 04:25:16;;;;;;;2.60;2.40;;;;;;;10.33;52.21;95623.22;4937938;28;20039;-70
2021/10/15 04:27:41;;;;;;;4.53;2.45;;;;;;;10.31;51.58;95622.75;4931354;29;20059;-71
2021/10/15 04:30:07;;;;;;;3.90;2.90;;;;;;;10.27;52.09;95616.41;4946574;28;20046;-70
2021/10/15 04:32:32;;;;;;;3.22;2.85;;;;;;;10.23;52.44;95614.59;4939124;28;20059;-70
2021/10/15 04:34:58;;;;;;;3.00;2.78;;;;;;;10.13;51.98;95595.09;4931441;28;20122;-73
2021/10/15 04:37:23;;;;;;;3.00;2.70;;;;;;;10.16;52.24;95604.34;4945450;28;20042;-72
2021/10/15 04:39:49;;;;;;;5.40;3.08;;;;;;;10.11;52.57;95613.19;4944213;28;20043;-71
2021/10/15 04:42:15;;;;;;;3.40;3.10;;;;;;;10.18;52.92;95609.34;4950378;28;20062;-71
2021/10/15 04:44:40;;;;;;;3.13;2.72;;;;;;;10.05;52.34;95610.88;4949570;28;20037;-71
2021/10/15 04:47:05;;;;;;;3.38;3.08;;;;;;;10.02;52.90;95603.47;4952852;28;20074;-71
2021/10/15 04:49:31;;;;;;;3.35;3.05;;;;;;;10.04;52.87;95611.97;4950287;28;20130;-70
2021/10/15 04:51:56;;;;;;;3.05;2.33;;;;;;;10.11;52.31;95602.53;4950387;28;20674;-70
2021/10/15 04:54:21;;;;;;;4.15;3.15;;;;;;;9.99;52.70;95596.88;4945408;28;20040;-70
2021/10/15 04:56:47;;;;;;;5.45;3.80;;;;;;;10.10;52.30;95600.19;4931295;28;20091;-71
2021/10/15 04:59:12;;;;;;;4.03;3.63;;;;;;;10.05;52.00;95586.97;4931724;29;20032;-70
2021/10/15 05:01:37;;;;;;;3.92;3.30;;;;;;;9.96;52.74;95580.72;4961574;28;20066;-72
2021/10/15 05:04:03;;;;;;;4.53;3.28;;;;;;;9.87;52.45;95580.56;4949697;28;20039;-71
2021/10/15 05:06:28;;;;;;;5.80;3.03;;;;;;;10.06;52.32;95586.66;4950441;28;20036;-69
2021/10/15 05:09:25;;;;;;;4.45;3.70;;;;;;;10.01;52.20;95575.31;4949729;28;20443;-72
2021/10/15 05:11:48;;;;;;;3.17;2.88;;;;;;;10.00;52.27;95582.50;4949899;28;20067;-70
2021/10/15 05:14:14;;;;;;;7.57;3.78;;;;;;;10.04;52.42;95580.88;4951013;28;20114;-72
2021/10/15 05:16:39;;;;;;;4.55;3.88;;;;;;;10.06;52.81;95575.25;4949827;28;20042;-72
2021/10/15 05:19:04;;;;;;;6.45;2.95;;;;;;;10.08;52.67;95581.88;4960822;28;20400;-69
2021/10/15 05:21:30;;;;;;;6.72;3.05;;;;;;;9.99;52.54;95585.47;4969043;28;20118;-72
2021/10/15 05:23:55;;;;;;;4.32;3.75;;;;;;;10.04;52.56;95575.56;4969111;28;20027;-71
2021/10/15 05:26:20;;;;;;;4.50;3.80;;;;;;;10.09;52.23;95574.69;4970994;28;20085;-72
2021/10/15 05:28:46;;;;;;;4.38;3.53;;;;;;;10.00;52.31;95569.22;4961251;28;20382;-71
2021/10/15 05:31:11;;;;;;;4.75;3.63;;;;;;;9.97;52.60;95563.69;4949454;28;20031;-72
2021/10/15 05:33:37;;;;;;;4.45;3.20;;;;;;;10.03;52.37;95562.53;4952795;28;20073;-70
2021/10/15 05:36:02;;;;;;;4.05;3.38;;;;;;;10.06;52.18;95573.38;4949438;28;20676;-70
2021/10/15 05:38:28;;;;;;;5.47;3.50;;;;;;;10.12;52.35;95561.59;4951265;28;20114;-71
2021/10/15 05:40:53;;;;;;;12.48;3.75;;;;;;;9.96;52.28;95538.19;4949025;28;20061;-72
2021/10/15 05:43:19;;;;;;;5.30;3.00;;;;;;;10.14;52.05;95553.34;4950452;28;20086;-70
2021/10/15 05:45:45;;;;;;;5.82;2.70;;;;;;;10.19;51.81;95557.78;4954813;28;20028;-70
2021/10/15 05:48:10;;;;;;;3.45;3.10;;;;;;;10.13;52.79;95547.25;4937118;28;20049;-80
2021/10/15 05:50:36;;;;;;;3.67;3.25;;;;;;;10.17;52.13;95547.44;4952082;28;20057;-75
2021/10/15 05:53:08;;;;;;;6.07;3.08;;;;;;;10.35;52.14;95567.13;4949832;28;20138;-69
2021/10/15 05:56:00;;;;;;;3.33;3.03;;;;;;;10.33;52.06;95556.75;4949315;28;20039;-69
2021/10/15 06:01:03;;;;;;;4.35;3.03;;;;;;;10.48;52.38;95565.56;4949775;28;20118;-77
2021/10/15 06:03:28;;;;;;;4.90;2.97;;;;;;;10.53;52.12;95568.91;4949711;28;20513;-79
2021/10/15 06:06:41;;;;;;;3.20;2.67;;;;;;;10.59;52.04;95564.28;4949729;28;20027;-78
2021/10/15 06:14:18;;;;;;;6.07;3.33;;;;;;;10.67;51.84;95561.75;4961656;28;20126;-83
2021/10/15 06:16:55;;;;;;;5.97;3.10;;;;;;;10.75;51.48;95567.47;4950646;28;20040;-69
2021/10/15 06:19:24;;;;;;;3.42;2.80;;;;;;;10.82;51.38;95567.88;4949432;28;20031;-74
2021/10/15 06:21:49;;;;;;;4.55;2.60;;;;;;;10.82;51.61;95559.91;4951315;28;20047;-75
2021/10/15 06:24:15;;;;;;;5.75;3.50;;;;;;;11.00;51.84;95564.34;4948309;28;20604;-68
2021/10/15 06:26:41;;;;;;;7.22;3.60;;;;;;;11.00;51.44;95564.34;4950209;28;20084;-74
2021/10/15 06:29:06;;;;;;;5.47;2.92;;;;;;;11.11;51.57;95563.06;4951253;28;20031;-74
2021/10/15 06:31:32;;;;;;;2.85;2.50;;;;;;;11.18;51.29;95560.78;4950100;28;20658;-75
2021/10/15 06:33:58;;;;;;;5.60;3.47;;;;;;;11.24;51.26;95561.47;4949872;28;20058;-74
2021/10/15 06:36:23;;;;;;;6.95;3.17;;;;;;;11.29;51.10;95552.59;4949113;28;20078;-79
2021/10/15 06:38:49;;;;;;;6.25;2.55;;;;;;;11.38;51.29;95553.47;4949340;28;20082;-73
2021/10/15 06:41:14;;;;;;;3.15;2.65;;;;;;;11.51;51.23;95559.84;4953909;28;20073;-74
2021/10/15 06:43:40;;;;;;;3.55;2.20;;;;;;;10.96;53.39;95566.03;4952827;28;20059;-80
2021/10/15 06:46:05;;;;;;;5.93;2.28;;;;;;;11.54;51.40;95553.94;4957887;28;20036;-74
2021/10/15 06:48:31;;;;;;;4.70;2.38;;;;;;;11.68;51.28;95562.72;4953329;28;20027;-80
2021/10/15 06:50:56;;;;;;;2.80;2.42;;;;;;;11.82;51.27;95571.47;4953710;28;20023;-69
2021/10/15 06:53:22;;;;;;;2.30;2.10;;;;;;;11.87;52.36;95567.91;4953868;28;20499;-69
2021/10/15 06:55:49;;;;;;;3.92;2.42;;;;;;;12.13;52.18;95568.09;4952659;28;20043;-68
2021/10/15 06:58:17;;;;;;;4.20;2.67;;;;;;;12.31;52.05;95575.13;4952298;28;20035;-68
2021/10/15 07:00:42;;;;;;;3.35;2.50;;;;;;;12.38;51.36;95567.47;4951063;28;20055;-68
2021/10/15 07:03:19;;;;;;;4.55;2.58;;;;;;;12.56;51.22;95575.59;4955783;28;20485;-69
2021/10/15 07:05:46;;;;;;;2.65;2.45;;;;;;;12.75;51.07;95576.97;4957055;28;20381;-68
2021/10/15 07:08:12;;;;;;;6.05;2.70;;;;;;;12.98;50.70;95576.91;4934727;29;20103;-68
2021/10/15 07:10:38;;;;;;;4.32;3.38;;;;;;;13.12;50.54;95568.81;4932173;28;20131;-69
2021/10/15 07:13:03;;;;;;;3.50;2.75;;;;;;;13.05;50.37;95576.47;4943610;28;20078;-68
2021/10/15 07:15:29;;;;;;;3.65;2.47;;;;;;;13.10;51.14;95568.31;4952206;28;20122;-69
2021/10/15 07:17:55;;;;;;;2.47;2.13;;;;;;;13.18;51.03;95573.69;4932667;28;20208;-69
2021/10/15 07:20:20;;;;;;;3.10;2.00;;;;;;;13.34;50.08;95574.06;4934197;29;20522;-75
2021/10/15 07:22:46;;;;;;;3.33;2.13;;;;;;;13.48;50.11;95563.28;4949989;28;20070;-74
2021/10/15 07:25:11;;;;;;;2.58;2.38;;;;;;;13.63;49.75;95575.41;4940470;28;20466;-75
2021/10/15 07:27:38;;;;;;;2.65;2.20;;;;;;;13.68;49.68;95568.03;4933942;29;20086;-77
2021/10/15 07:30:06;;;;;;;2.05;1.80;;;;;;;13.59;49.88;95574.44;4943808;28;20049;-74
2021/10/15 07:32:33;;;;;;;3.60;2.25;;;;;;;13.76;49.71;95558.44;4946381;29;20417;-72
2021/10/15 07:34:58;;;;;;;2.63;1.98;;;;;;;13.84;49.27;95571.03;4953154;28;20046;-77
2021/10/15 07:37:25;;;;;;;2.13;1.80;;;;;;;13.19;51.19;95580.59;4954125;28;20036;-80
2021/10/15 07:39:51;;;;;;;2.65;1.80;;;;;;;13.38;49.78;95579.59;4953685;28;20056;-79
2021/10/15 07:42:16;;;;;;;3.92;2.22;;;;;;;13.72;49.45;95573.53;4953209;28;20383;-80
2021/10/15 07:44:42;;;;;;;2.78;2.10;;;;;;;13.35;49.68;95586.34;4954075;28;20034;-80
2021/10/15 07:47:07;;;;;;;1.77;1.67;;;;;;;13.92;48.57;95575.59;4975154;28;20030;-79
2021/10/15 07:49:33;;;;;;;3.40;2.00;;;;;;;13.31;49.90;95566.69;4972896;28;20058;-79
2021/10/15 07:51:58;;;;;;;3.00;1.73;;;;;;;13.78;49.43;95580.31;4972884;28;20043;-80
2021/10/15 07:54:24;;;;;;;4.43;2.30;;;;;;;13.90;49.23;95574.34;4972908;28;20039;-78
2021/10/15 07:56:49;;;;;;;3.20;2.05;;;;;;;12.47;51.46;95572.88;4971800;28;20115;-79
2021/10/15 07:59:15;;;;;;;2.85;1.98;;;;;;;13.88;48.53;95563.97;4971889;28;20048;-79
2021/10/15 08:01:40;;;;;;;3.53;2.08;;;;;;;13.50;48.58;95577.88;4952936;28;20064;-79
2021/10/15 08:04:05;;;;;;;2.85;2.22;;;;;;;12.91;50.49;95561.34;4952677;28;20039;-78
2021/10/15 08:06:31;;;;;;;3.67;1.80;;;;;;;13.72;49.55;95568.19;4951781;28;20044;-78
2021/10/15 08:08:57;;;;;;;3.42;2.30;;;;;;;14.30;48.65;95577.63;4950653;28;25256;-79
2021/10/15 08:11:22;;;;;;;2.25;1.98;;;;;;;14.84;46.96;95578.00;4953477;28;20063;-79
2021/10/15 08:13:48;;;;;;;2.40;1.90;;;;;;;14.49;47.25;95580.00;4949989;28;20047;-76
2021/10/15 08:16:13;;;;;;;3.05;2.00;;;;;;;15.14;45.97;95564.66;4951571;28;20047;-80
2021/10/15 08:18:39;;;;;;;3.42;1.90;;;;;;;15.30;45.05;95574.53;4951341;28;20101;-80
2021/10/15 08:21:04;;;;;;;2.20;1.75;;;;;;;15.29;45.34;95569.50;4951764;28;20054;-77
2021/10/15 08:23:31;;;;;;;1.92;1.77;;;;;;;15.76;44.58;95580.13;4954104;28;20023;-79
2021/10/15 08:26:00;;;;;;;1.85;1.67;;;;;;;13.39;47.51;95586.50;4952883;28;20046;-79
2021/10/15 08:28:26;;;;;;;2.60;2.10;;;;;;;14.00;47.53;95574.81;4951671;28;20035;-77
2021/10/15 08:30:53;;;;;;;2.53;1.65;;;;;;;14.21;46.79;95574.94;4952262;28;20548;-78
2021/10/15 08:33:18;;;;;;;3.03;1.70;;;;;;;15.41;44.87;95563.47;4947080;28;20046;-78
2021/10/15 08:35:44;;;;;;;6.80;1.65;;;;;;;15.31;44.64;95573.44;4933312;28;20024;-80
2021/10/15 08:38:13;;;;;;;2.70;1.55;;;;;;;15.73;43.16;95557.44;4954887;29;20027;-79
2021/10/15 08:40:38;;;;;;;1.67;1.50;;;;;;;15.48;43.38;95569.09;4952483;28;20039;-79
2021/10/15 08:43:03;;;;;;;2.72;1.30;;;;;;;14.67;43.55;95559.31;4952532;28;20429;-79
2021/10/15 08:45:31;;;;;;;2.28;1.30;;;;;;;14.61;44.86;95574.78;4955712;28;20046;-79
2021/10/15 08:47:59;;;;;;;1.23;1.10;;;;;;;14.73;43.93;95571.44;4953079;28;20505;-79
2021/10/15 08:50:25;;;;;;;2.67;1.50;;;;;;;14.41;44.94;95562.81;4954371;29;20050;-74
2021/10/15 08:52:51;;;;;;;2.25;1.10;;;;;;;13.87;46.49;95575.75;4951070;28;20301;-78
2021/10/15 08:55:17;;;;;;;1.65;1.35;;;;;;;15.67;43.31;95574.06;4951996;28;20047;-77
2021/10/15 08:57:50;;;;;;;1.98;1.42;;;;;;;16.06;42.08;95570.13;4951521;28;20130;-78
2021/10/15 09:00:27;;;;;;;2.03;1.20;;;;;;;16.88;41.42;95573.00;4964787;28;20047;-75
2021/10/15 09:03:10;;;;;;;1.30;1.20;;;;;;;17.17;40.40;95569.38;4950604;28;20108;-78
2021/10/15 09:05:36;;;;;;;5.57;1.20;;;;;;;17.55;39.31;95573.63;4933508;29;20112;-76
2021/10/15 09:08:03;;;;;;;2.70;1.45;;;;;;;17.47;39.26;95553.81;4932490;28;20047;-77
2021/10/15 09:10:32;;;;;;;1.50;1.40;;;;;;;15.31;41.45;95583.38;4932306;28;20047;-80
2021/10/15 09:13:09;;;;;;;2.60;1.35;;;;;;;14.77;42.94;95572.38;4931231;28;20039;-71
2021/10/15 09:15:35;;;;;;;2.35;1.50;;;;;;;15.52;41.55;95583.41;4944132;28;20031;-77
2021/10/15 09:18:20;;;;;;;1.60;1.30;;;;;;;16.52;39.98;95576.38;4951225;28;20106;-75
2021/10/15 09:20:48;;;;;;;1.35;1.25;;;;;;;16.29;40.89;95584.00;4945366;28;20034;-77
2021/10/15 09:23:14;;;;;;;2.38;1.48;;;;;;;15.75;41.86;95578.56;4952525;28;20106;-76
2021/10/15 09:25:42;;;;;;;2.20;1.60;;;;;;;15.43;42.78;95577.31;4951075;28;20150;-83
2021/10/15 09:28:15;;;;;;;2.20;1.55;;;;;;;15.48;43.01;95583.28;4950676;28;20090;-66
2021/10/15 09:30:43;;;;;;;2.17;1.95;;;;;;;15.41;42.34;95568.81;4949868;28;20040;-76
2021/10/15 09:33:09;;;;;;;2.20;1.88;;;;;;;14.77;44.19;95575.06;4951256;28;20062;-81
2021/10/15 09:35:34;;;;;;;2.40;2.15;;;;;;;15.08;43.57;95566.75;4969011;28;20027;-75
2021/10/15 09:38:03;;;;;;;2.35;2.15;;;;;;;15.59;42.97;95575.63;4951479;28;20103;-71
2021/10/15 09:40:38;;;;;;;4.05;1.90;;;;;;;15.45;43.27;95573.19;4949989;28;20043;-69
2021/10/15 09:43:06;;;;;;;3.58;2.08;;;;;;;14.85;43.98;95568.13;4950590;28;20712;-75
2021/10/15 09:45:36;;;;;;;3.20;2.05;;;;;;;14.76;44.10;95560.09;4948074;28;20043;-69
2021/10/15 09:48:17;;;;;;;3.38;2.25;;;;;;;14.64;44.79;95574.16;4949664;28;20031;-73
2021/10/15 09:50:42;;;;;;;3.20;2.13;;;;;;;15.43;43.93;95570.06;4942833;28;20425;-72
2021/10/15 09:53:09;;;;;;;3.53;1.85;;;;;;;15.60;43.43;95559.22;4951541;28;20038;-80
2021/10/15 09:55:43;;;;;;;2.25;2.00;;;;;;;15.79;42.82;95571.44;4951085;28;20047;-77
2021/10/15 09:58:21;;;;;;;2.20;2.00;;;;;;;15.52;42.57;95562.75;4950025;28;20087;-72
2021/10/15 10:00:48;;;;;;;3.20;1.85;;;;;;;14.95;44.79;95573.91;4948343;28;20043;-72
2021/10/15 10:03:14;;;;;;;3.50;1.95;;;;;;;15.79;42.75;95544.63;4947351;28;20039;-71
2021/10/15 10:05:40;;;;;;;2.53;1.90;;;;;;;17.34;40.79;95554.91;4949045;28;20035;-77
2021/10/15 10:08:06;;;;;;;3.17;1.58;;;;;;;17.51;39.35;95554.69;4951511;28;20023;-72
2021/10/15 10:10:37;;;;;;;1.52;1.42;;;;;;;16.65;40.55;95556.50;4948680;28;20397;-73
2021/10/15 10:13:03;;;;;;;2.13;1.60;;;;;;;18.41;38.66;95548.06;4948995;28;20043;-72
2021/10/15 10:15:32;;;;;;;2.17;1.60;;;;;;;19.17;36.68;95540.03;4949769;28;20075;-75
2021/10/15 10:18:02;;;;;;;2.50;1.35;;;;;;;18.71;36.96;95553.13;4951625;28;22186;-72
2021/10/15 10:20:32;;;;;;;2.28;1.63;;;;;;;19.55;35.63;95543.97;4954590;28;20019;-72
2021/10/15 10:23:06;;;;;;;2.45;1.50;;;;;;;19.97;34.90;95546.88;4951612;28;20776;-79
2021/10/15 10:25:34;;;;;;;4.32;1.50;;;;;;;18.36;37.59;95537.53;4952937;28;20097;-81
2021/10/15 10:28:21;;;;;;;1.30;1.20;;;;;;;19.71;35.92;95553.66;4952083;28;20042;-72
2021/10/15 10:30:50;;;;;;;2.65;1.38;;;;;;;18.49;36.82;95538.28;4951306;28;20039;-71
2021/10/15 10:33:15;;;;;;;1.60;1.50;;;;;;;18.26;36.92;95542.66;4952432;28;20046;-72
2021/10/15 10:35:43;;;;;;;1.90;1.60;;;;;;;16.28;40.17;95551.00;4951696;28;20384;-73
2021/10/15 10:38:20;;;;;;;4.20;2.22;;;;;;;16.48;40.68;95560.16;4954673;28;20019;-78
2021/10/15 10:41:01;;;;;;;3.00;1.80;;;;;;;16.60;40.59;95557.50;4952415;28;20051;-68
2021/10/15 10:43:33;;;;;;;4.55;2.70;;;;;;;17.07;40.01;95549.09;4952696;28;20031;-76
2021/10/15 10:46:08;;;;;;;3.38;1.73;;;;;;;16.86;40.58;95551.09;4952615;28;20039;-73
2021/10/15 10:48:48;;;;;;;1.77;1.58;;;;;;;17.12;40.38;95529.28;4944865;28;20066;-72
2021/10/15 10:51:19;;;;;;;1.85;1.67;;;;;;;16.85;41.88;95554.88;4952790;28;20497;-73
2021/10/15 10:54:00;;;;;;;2.45;1.50;;;;;;;17.58;39.70;95549.53;4952493;28;20509;-71
2021/10/15 10:56:49;;;;;;;2.92;1.90;;;;;;;17.57;39.62;95547.19;4954149;28;20442;-74
2021/10/15 10:59:21;;;;;;;2.78;1.80;;;;;;;18.50;37.72;95547.94;4952532;28;20075;-72
2021/10/15 11:01:50;;;;;;;4.18;2.10;;;;;;;18.51;37.72;95541.41;4952226;28;20039;-74
2021/10/15 11:04:38;;;;;;;2.10;1.90;;;;;;;17.63;39.43;95545.81;4952060;28;20036;-75
2021/10/15 11:07:21;;;;;;;2.15;1.95;;;;;;;16.90;40.55;95554.69;4952353;28;20511;-71
2021/10/15 11:09:51;;;;;;;6.10;2.25;;;;;;;18.34;38.10;95529.03;4951899;28;20517;-72
2021/10/15 11:12:26;;;;;;;1.52;1.42;;;;;;;19.00;37.28;95546.56;4952421;28;20106;-70
2021/10/15 11:14:55;;;;;;;2.65;2.03;;;;;;;17.95;38.38;95538.72;4950766;28;20386;-69
2021/10/15 11:17:24;;;;;;;3.00;2.00;;;;;;;17.47;39.43;95537.66;4953878;28;20035;-72
2021/10/15 11:20:29;;;;;;;2.22;2.00;;;;;;;17.88;39.13;95533.13;4952165;28;20070;-71
2021/10/15 11:22:59;;;;;;;2.10;1.50;;;;;;;18.72;37.88;95529.66;4947393;28;20093;-72
2021/10/15 11:25:30;;;;;;;2.65;1.88;;;;;;;17.24;40.17;95525.78;4950675;28;20046;-70
2021/10/15 11:28:03;;;;;;;1.92;1.80;;;;;;;17.63;39.76;95527.78;4951021;28;20042;-69
2021/10/15 11:30:32;;;;;;;2.30;2.10;;;;;;;18.19;38.37;95516.31;4951736;28;20082;-72
2021/10/15 11:32:58;;;;;;;2.50;1.98;;;;;;;18.58;38.26;95495.00;4951129;28;20046;-70
2021/10/15 11:35:27;;;;;;;4.35;2.08;;;;;;;18.78;37.52;95515.56;4952745;29;20051;-73
2021/10/15 11:38:07;;;;;;;2.40;2.20;;;;;;;19.22;36.89;95504.69;4950442;28;20559;-73
2021/10/15 11:41:09;;;;;;;2.33;1.85;;;;;;;19.75;35.89;95499.72;4951222;28;20062;-73
2021/10/15 11:43:41;;;;;;;3.00;2.40;;;;;;;20.07;35.48;95491.53;4929630;28;20099;-70
2021/10/15 11:46:12;;;;;;;6.28;2.30;;;;;;;18.93;35.33;95498.63;4950937;28;20039;-73